sensor_id;sensor_type;location;lat;lon;timestamp;pressure;altitude;pressure_sealevel;temperature;humidity
24104;BME280;12278;53.058;9.028;2022-09-09T00:06:08;100529.09;;;14.60;100.00
24104;BME280;12278;53.058;9.028;2022-09-09T00:10:29;100528.03;;;14.68;100.00
24104;BME280;12278;53.058;9.028;2022-09-09T00:19:07;100519.13;;;14.66;100.00
24104;BME280;12278;53.058;9.028;2022-09-09T00:23:12;100531.63;;;14.67;100.00
24104;BME280;12278;53.058;9.028;2022-09-09T00:27:31;100522.81;;;14.58;100.00
24104;BME280;12278;53.058;9.028;2022-09-09T00:31:33;100533.63;;;14.53;100.00
24104;BME280;12278;53.058;9.028;2022-09-09T00:35:45;100525.66;;;14.48;100.00
24104;BME280;12278;53.058;9.028;2022-09-09T00:39:48;100531.03;;;14.48;100.00
24104;BME280;12278;53.058;9.028;2022-09-09T00:44:31;100523.84;;;14.51;100.00
24104;BME280;12278;53.058;9.028;2022-09-09T00:53:26;100530.00;;;14.56;100.00
24104;BME280;12278;53.058;9.028;2022-09-09T00:57:35;100526.44;;;14.55;100.00
24104;BME280;12278;53.058;9.028;2022-09-09T01:01:37;100529.31;;;14.40;100.00
24104;BME280;12278;53.058;9.028;2022-09-09T01:14:43;100542.72;;;14.40;100.00
24104;BME280;12278;53.058;9.028;2022-09-09T01:18:49;100535.75;;;14.28;100.00
24104;BME280;12278;53.058;9.028;2022-09-09T01:23:12;100530.41;;;14.27;100.00
24104;BME280;12278;53.058;9.028;2022-09-09T01:27:19;100525.97;;;14.24;100.00
24104;BME280;12278;53.058;9.028;2022-09-09T01:31:42;100535.72;;;14.30;100.00
24104;BME280;12278;53.058;9.028;2022-09-09T01:35:57;100529.56;;;14.23;100.00
24104;BME280;12278;53.058;9.028;2022-09-09T01:40:01;100517.03;;;14.24;100.00
24104;BME280;12278;53.058;9.028;2022-09-09T01:44:03;100518.75;;;14.29;100.00
24104;BME280;12278;53.058;9.028;2022-09-09T01:48:04;100511.75;;;14.16;100.00
24104;BME280;12278;53.058;9.028;2022-09-09T01:52:05;100497.59;;;14.06;100.00
24104;BME280;12278;53.058;9.028;2022-09-09T02:05:40;100499.41;;;14.06;100.00
24104;BME280;12278;53.058;9.028;2022-09-09T02:09:47;100495.78;;;14.05;100.00
24104;BME280;12278;53.058;9.028;2022-09-09T02:14:15;100490.50;;;14.01;100.00
24104;BME280;12278;53.058;9.028;2022-09-09T02:23:07;100484.41;;;13.86;100.00
24104;BME280;12278;53.058;9.028;2022-09-09T02:27:09;100496.91;;;13.87;100.00
24104;BME280;12278;53.058;9.028;2022-09-09T02:31:12;100500.44;;;13.93;100.00
24104;BME280;12278;53.058;9.028;2022-09-09T02:35:20;100492.38;;;13.94;100.00
24104;BME280;12278;53.058;9.028;2022-09-09T02:39:23;100484.41;;;13.86;100.00
24104;BME280;12278;53.058;9.028;2022-09-09T02:43:24;100488.03;;;13.84;100.00
24104;BME280;12278;53.058;9.028;2022-09-09T02:47:39;100483.59;;;13.81;100.00
24104;BME280;12278;53.058;9.028;2022-09-09T02:56:07;100473.88;;;13.74;100.00
24104;BME280;12278;53.058;9.028;2022-09-09T03:00:11;100479.28;;;13.71;100.00
24104;BME280;12278;53.058;9.028;2022-09-09T03:04:12;100477.53;;;13.66;100.00
24104;BME280;12278;53.058;9.028;2022-09-09T03:08:14;100486.41;;;13.72;100.00
24104;BME280;12278;53.058;9.028;2022-09-09T03:12:14;100489.06;;;13.71;100.00
24104;BME280;12278;53.058;9.028;2022-09-09T03:16:15;100488.16;;;13.75;100.00
24104;BME280;12278;53.058;9.028;2022-09-09T03:20:17;100496.09;;;13.81;100.00
24104;BME280;12278;53.058;9.028;2022-09-09T03:24:19;100497.06;;;13.75;100.00
24104;BME280;12278;53.058;9.028;2022-09-09T03:28:20;100501.44;;;13.82;100.00
24104;BME280;12278;53.058;9.028;2022-09-09T03:32:21;100501.44;;;13.84;100.00
24104;BME280;12278;53.058;9.028;2022-09-09T03:36:26;100507.63;;;13.91;100.00
24104;BME280;12278;53.058;9.028;2022-09-09T03:40:27;100511.25;;;13.83;100.00
24104;BME280;12278;53.058;9.028;2022-09-09T03:44:30;100514.81;;;13.85;100.00
24104;BME280;12278;53.058;9.028;2022-09-09T03:48:30;100513.00;;;13.86;100.00
24104;BME280;12278;53.058;9.028;2022-09-09T03:52:31;100511.19;;;13.88;100.00
24104;BME280;12278;53.058;9.028;2022-09-09T03:56:32;100515.59;;;13.95;100.00
24104;BME280;12278;53.058;9.028;2022-09-09T04:00:32;100515.63;;;13.94;100.00
24104;BME280;12278;53.058;9.028;2022-09-09T04:04:33;100508.50;;;13.91;100.00
24104;BME280;12278;53.058;9.028;2022-09-09T04:08:34;100505.84;;;13.86;100.00
24104;BME280;12278;53.058;9.028;2022-09-09T04:12:42;100504.06;;;13.88;100.00
24104;BME280;12278;53.058;9.028;2022-09-09T04:16:43;100511.25;;;13.83;100.00
24104;BME280;12278;53.058;9.028;2022-09-09T04:20:52;100509.41;;;13.87;100.00
24104;BME280;12278;53.058;9.028;2022-09-09T04:24:54;100506.81;;;13.81;100.00
24104;BME280;12278;53.058;9.028;2022-09-09T04:28:55;100509.53;;;13.79;100.00
24104;BME280;12278;53.058;9.028;2022-09-09T04:32:56;100513.06;;;13.81;100.00
24104;BME280;12278;53.058;9.028;2022-09-09T04:36:57;100520.22;;;13.81;100.00
24104;BME280;12278;53.058;9.028;2022-09-09T04:40:59;100530.00;;;13.83;100.00
24104;BME280;12278;53.058;9.028;2022-09-09T04:44:59;100528.16;;;13.90;100.00
24104;BME280;12278;53.058;9.028;2022-09-09T04:49:00;100545.13;;;13.92;100.00
24104;BME280;12278;53.058;9.028;2022-09-09T04:53:02;100536.25;;;13.85;100.00
24104;BME280;12278;53.058;9.028;2022-09-09T04:57:05;100537.97;;;13.93;100.00
24104;BME280;12278;53.058;9.028;2022-09-09T05:01:20;100543.22;;;14.00;100.00
24104;BME280;12278;53.058;9.028;2022-09-09T05:05:24;100552.09;;;14.05;100.00
24104;BME280;12278;53.058;9.028;2022-09-09T05:09:26;100549.44;;;14.04;100.00
24104;BME280;12278;53.058;9.028;2022-09-09T05:13:27;100551.25;;;14.00;100.00
24104;BME280;12278;53.058;9.028;2022-09-09T05:17:28;100560.22;;;13.98;100.00
24104;BME280;12278;53.058;9.028;2022-09-09T05:21:30;100562.91;;;13.99;100.00
24104;BME280;12278;53.058;9.028;2022-09-09T05:25:31;100560.28;;;13.93;100.00
24104;BME280;12278;53.058;9.028;2022-09-09T05:29:33;100563.78;;;14.00;100.00
24104;BME280;12278;53.058;9.028;2022-09-09T05:33:35;100568.19;;;14.07;100.00
24104;BME280;12278;53.058;9.028;2022-09-09T05:37:36;100567.28;;;14.05;100.00
24104;BME280;12278;53.058;9.028;2022-09-09T05:41:37;100565.50;;;14.07;100.00
24104;BME280;12278;53.058;9.028;2022-09-09T05:45:38;100575.31;;;14.05;100.00
24104;BME280;12278;53.058;9.028;2022-09-09T05:49:38;100585.09;;;14.12;100.00
24104;BME280;12278;53.058;9.028;2022-09-09T05:53:39;100580.59;;;14.15;100.00
24104;BME280;12278;53.058;9.028;2022-09-09T05:57:40;100583.16;;;14.25;100.00
24104;BME280;12278;53.058;9.028;2022-09-09T06:01:41;100588.56;;;14.23;100.00
24104;BME280;12278;53.058;9.028;2022-09-09T06:05:42;100583.25;;;14.17;100.00
24104;BME280;12278;53.058;9.028;2022-09-09T06:09:43;100581.31;;;14.28;100.00
24104;BME280;12278;53.058;9.028;2022-09-09T06:13:44;100582.25;;;14.27;100.00
24104;BME280;12278;53.058;9.028;2022-09-09T06:17:45;100583.16;;;14.26;100.00
24104;BME280;12278;53.058;9.028;2022-09-09T06:21:45;100582.94;;;14.43;100.00
24104;BME280;12278;53.058;9.028;2022-09-09T06:25:48;100585.97;;;14.83;100.00
24104;BME280;12278;53.058;9.028;2022-09-09T06:29:49;100591.16;;;15.52;100.00
24104;BME280;12278;53.058;9.028;2022-09-09T06:33:51;100602.91;;;15.96;100.00
24104;BME280;12278;53.058;9.028;2022-09-09T06:37:52;100604.31;;;16.17;100.00
24104;BME280;12278;53.058;9.028;2022-09-09T06:41:53;100599.31;;;16.42;100.00
24104;BME280;12278;53.058;9.028;2022-09-09T06:46:00;100610.16;;;16.80;100.00
24104;BME280;12278;53.058;9.028;2022-09-09T06:50:01;100615.50;;;17.22;100.00
24104;BME280;12278;53.058;9.028;2022-09-09T06:54:03;100599.69;;;17.44;100.00
24104;BME280;12278;53.058;9.028;2022-09-09T06:58:08;100604.34;;;17.74;99.58
24104;BME280;12278;53.058;9.028;2022-09-09T07:02:10;100598.28;;;17.99;97.41
24104;BME280;12278;53.058;9.028;2022-09-09T07:06:18;100597.00;;;17.80;98.08
24104;BME280;12278;53.058;9.028;2022-09-09T07:10:19;100590.94;;;17.71;98.44
24104;BME280;12278;53.058;9.028;2022-09-09T07:14:20;100582.88;;;17.33;99.03
24104;BME280;12278;53.058;9.028;2022-09-09T07:18:22;100582.56;;;17.46;100.00
24104;BME280;12278;53.058;9.028;2022-09-09T07:22:23;100600.56;;;18.14;97.33
24104;BME280;12278;53.058;9.028;2022-09-09T07:26:29;100599.19;;;18.30;96.14
24104;BME280;12278;53.058;9.028;2022-09-09T07:30:31;100605.13;;;18.43;96.56
24104;BME280;12278;53.058;9.028;2022-09-09T07:34:31;100605.44;;;18.32;94.99
24104;BME280;12278;53.058;9.028;2022-09-09T07:38:47;100597.03;;;18.12;95.44
24104;BME280;12278;53.058;9.028;2022-09-09T07:42:48;100611.91;;;18.27;97.28
24104;BME280;12278;53.058;9.028;2022-09-09T07:46:49;100609.16;;;18.59;95.25
24104;BME280;12278;53.058;9.028;2022-09-09T07:50:50;100609.53;;;19.06;92.68
24104;BME280;12278;53.058;9.028;2022-09-09T07:54:51;100615.44;;;19.47;89.30
24104;BME280;12278;53.058;9.028;2022-09-09T07:58:55;100612.13;;;19.65;86.79
24104;BME280;12278;53.058;9.028;2022-09-09T08:02:56;100619.06;;;19.18;87.68
24104;BME280;12278;53.058;9.028;2022-09-09T08:06:59;100610.41;;;19.35;88.54
24104;BME280;12278;53.058;9.028;2022-09-09T08:11:11;100598.28;;;18.92;88.45
24104;BME280;12278;53.058;9.028;2022-09-09T08:15:12;100608.22;;;18.90;89.47
24104;BME280;12278;53.058;9.028;2022-09-09T08:19:13;100608.41;;;19.13;90.06
24104;BME280;12278;53.058;9.028;2022-09-09T08:23:15;100599.13;;;18.64;90.68
24104;BME280;12278;53.058;9.028;2022-09-09T08:27:16;100618.84;;;19.52;89.91
24104;BME280;12278;53.058;9.028;2022-09-09T08:31:24;100618.84;;;20.05;86.16
24104;BME280;12278;53.058;9.028;2022-09-09T08:35:25;100603.59;;;19.23;86.55
24104;BME280;12278;53.058;9.028;2022-09-09T08:39:26;100602.56;;;18.99;90.36
24104;BME280;12278;53.058;9.028;2022-09-09T08:43:28;100614.19;;;19.01;90.23
24104;BME280;12278;53.058;9.028;2022-09-09T08:52:28;100623.66;;;18.86;91.44
24104;BME280;12278;53.058;9.028;2022-09-09T08:56:32;100614.09;;;18.76;90.01
24104;BME280;12278;53.058;9.028;2022-09-09T09:14:18;100629.91;;;19.72;88.97
24104;BME280;12278;53.058;9.028;2022-09-09T09:18:23;100627.69;;;19.85;88.78
24104;BME280;12278;53.058;9.028;2022-09-09T09:26:37;100619.44;;;19.06;92.53
24104;BME280;12278;53.058;9.028;2022-09-09T09:30:44;100625.06;;;19.00;92.47
24104;BME280;12278;53.058;9.028;2022-09-09T09:34:56;100622.59;;;19.20;89.96
24104;BME280;12278;53.058;9.028;2022-09-09T09:38:59;100623.78;;;19.39;90.60
24104;BME280;12278;53.058;9.028;2022-09-09T09:43:01;100613.56;;;19.21;89.12
24104;BME280;12278;53.058;9.028;2022-09-09T09:47:22;100626.72;;;19.60;87.11
24104;BME280;12278;53.058;9.028;2022-09-09T09:51:25;100627.75;;;19.83;86.14
24104;BME280;12278;53.058;9.028;2022-09-09T09:55:30;100630.72;;;20.26;83.27
24104;BME280;12278;53.058;9.028;2022-09-09T09:59:35;100645.31;;;20.71;81.00
24104;BME280;12278;53.058;9.028;2022-09-09T10:03:36;100641.09;;;20.88;79.13
24104;BME280;12278;53.058;9.028;2022-09-09T10:07:39;100640.28;;;21.31;80.51
24104;BME280;12278;53.058;9.028;2022-09-09T10:39:39;100618.78;;;19.81;81.84
24104;BME280;12278;53.058;9.028;2022-09-09T10:48:55;100615.78;;;19.64;82.46
24104;BME280;12278;53.058;9.028;2022-09-09T10:57:54;100624.59;;;19.41;85.95
24104;BME280;12278;53.058;9.028;2022-09-09T11:06:14;100624.22;;;19.81;86.08
24104;BME280;12278;53.058;9.028;2022-09-09T11:10:40;100627.91;;;20.04;84.40
24104;BME280;12278;53.058;9.028;2022-09-09T11:14:51;100621.72;;;20.25;82.75
24104;BME280;12278;53.058;9.028;2022-09-09T11:19:00;100625.88;;;20.60;80.69
24104;BME280;12278;53.058;9.028;2022-09-09T11:23:13;100619.72;;;20.30;81.75
24104;BME280;12278;53.058;9.028;2022-09-09T11:27:27;100617.91;;;20.06;83.25
24104;BME280;12278;53.058;9.028;2022-09-09T11:31:44;100614.25;;;19.82;83.73
24104;BME280;12278;53.058;9.028;2022-09-09T11:40:24;100629.63;;;19.81;83.30
24104;BME280;12278;53.058;9.028;2022-09-09T11:44:30;100622.69;;;19.73;84.11
24104;BME280;12278;53.058;9.028;2022-09-09T11:52:46;100612.75;;;20.00;81.78
24104;BME280;12278;53.058;9.028;2022-09-09T11:56:47;100617.38;;;19.70;85.34
24104;BME280;12278;53.058;9.028;2022-09-09T12:00:49;100597.19;;;19.25;86.07
24104;BME280;12278;53.058;9.028;2022-09-09T12:05:05;100607.97;;;18.99;87.57
24104;BME280;12278;53.058;9.028;2022-09-09T12:13:25;100648.78;;;18.59;94.97
24104;BME280;12278;53.058;9.028;2022-09-09T12:17:30;100630.66;;;17.99;100.00
24104;BME280;12278;53.058;9.028;2022-09-09T12:30:08;100639.28;;;17.42;100.00
24104;BME280;12278;53.058;9.028;2022-09-09T12:42:32;100650.84;;;17.08;100.00
24104;BME280;12278;53.058;9.028;2022-09-09T12:46:44;100645.63;;;17.01;99.14
24104;BME280;12278;53.058;9.028;2022-09-09T12:50:50;100652.28;;;16.84;98.28
24104;BME280;12278;53.058;9.028;2022-09-09T12:54:53;100655.03;;;16.81;97.19
24104;BME280;12278;53.058;9.028;2022-09-09T12:58:57;100647.91;;;16.79;97.49
24104;BME280;12278;53.058;9.028;2022-09-09T13:03:02;100658.31;;;16.96;99.10
24104;BME280;12278;53.058;9.028;2022-09-09T13:07:07;100651.16;;;16.95;100.00
24104;BME280;12278;53.058;9.028;2022-09-09T13:11:20;100629.34;;;17.07;100.00
24104;BME280;12278;53.058;9.028;2022-09-09T13:15:26;100622.78;;;17.17;100.00
24104;BME280;12278;53.058;9.028;2022-09-09T13:19:35;100625.09;;;17.34;100.00
24104;BME280;12278;53.058;9.028;2022-09-09T13:23:37;100613.16;;;17.44;100.00
24104;BME280;12278;53.058;9.028;2022-09-09T13:27:41;100625.13;;;17.71;100.00
24104;BME280;12278;53.058;9.028;2022-09-09T13:31:54;100645.53;;;18.46;98.65
24104;BME280;12278;53.058;9.028;2022-09-09T13:36:12;100649.06;;;19.66;90.42
24104;BME280;12278;53.058;9.028;2022-09-09T13:40:22;100639.44;;;19.84;87.17
24104;BME280;12278;53.058;9.028;2022-09-09T13:44:28;100633.72;;;19.67;88.33
24104;BME280;12278;53.058;9.028;2022-09-09T13:48:30;100617.81;;;19.30;88.54
24104;BME280;12278;53.058;9.028;2022-09-09T13:52:32;100620.84;;;19.19;89.35
24104;BME280;12278;53.058;9.028;2022-09-09T13:56:33;100621.22;;;19.35;87.88
24104;BME280;12278;53.058;9.028;2022-09-09T14:00:35;100620.72;;;19.22;87.77
24104;BME280;12278;53.058;9.028;2022-09-09T14:04:36;100621.06;;;18.83;89.40
24104;BME280;12278;53.058;9.028;2022-09-09T14:08:37;100623.00;;;18.47;94.20
24104;BME280;12278;53.058;9.028;2022-09-09T14:12:39;100635.53;;;18.50;94.95
24104;BME280;12278;53.058;9.028;2022-09-09T14:16:40;100647.53;;;18.38;96.95
24104;BME280;12278;53.058;9.028;2022-09-09T14:20:41;100635.34;;;18.25;95.43
24104;BME280;12278;53.058;9.028;2022-09-09T14:24:41;100641.31;;;18.03;97.62
24104;BME280;12278;53.058;9.028;2022-09-09T14:28:42;100639.84;;;17.92;100.00
24104;BME280;12278;53.058;9.028;2022-09-09T14:32:43;100638.22;;;17.85;100.00
24104;BME280;12278;53.058;9.028;2022-09-09T14:36:44;100622.72;;;17.57;100.00
24104;BME280;12278;53.058;9.028;2022-09-09T14:40:45;100628.22;;;17.53;100.00
24104;BME280;12278;53.058;9.028;2022-09-09T14:44:47;100619.72;;;17.32;100.00
24104;BME280;12278;53.058;9.028;2022-09-09T14:48:48;100627.09;;;17.26;100.00
24104;BME280;12278;53.058;9.028;2022-09-09T14:52:49;100624.69;;;17.13;100.00
24104;BME280;12278;53.058;9.028;2022-09-09T14:56:51;100624.78;;;17.09;100.00
24104;BME280;12278;53.058;9.028;2022-09-09T15:00:51;100631.94;;;17.10;100.00
24104;BME280;12278;53.058;9.028;2022-09-09T15:04:53;100638.34;;;17.06;100.00
24104;BME280;12278;53.058;9.028;2022-09-09T15:08:57;100636.59;;;17.03;100.00
24104;BME280;12278;53.058;9.028;2022-09-09T15:12:58;100648.34;;;16.99;100.00
24104;BME280;12278;53.058;9.028;2022-09-09T15:16:58;100638.84;;;16.83;100.00
24104;BME280;12278;53.058;9.028;2022-09-09T15:21:00;100652.41;;;16.78;100.00
24104;BME280;12278;53.058;9.028;2022-09-09T15:25:03;100637.94;;;16.82;100.00
24104;BME280;12278;53.058;9.028;2022-09-09T15:29:07;100623.78;;;16.74;100.00
24104;BME280;12278;53.058;9.028;2022-09-09T15:33:08;100611.31;;;16.70;100.00
24104;BME280;12278;53.058;9.028;2022-09-09T15:37:12;100598.00;;;16.61;100.00
24104;BME280;12278;53.058;9.028;2022-09-09T15:41:17;100610.75;;;16.53;100.00
24104;BME280;12278;53.058;9.028;2022-09-09T15:45:18;100596.88;;;16.29;100.00
24104;BME280;12278;53.058;9.028;2022-09-09T15:49:25;100590.84;;;16.18;100.00
24104;BME280;12278;53.058;9.028;2022-09-09T15:53:26;100591.75;;;16.17;100.00
24104;BME280;12278;53.058;9.028;2022-09-09T15:57:26;100581.06;;;16.13;100.00
24104;BME280;12278;53.058;9.028;2022-09-09T16:01:29;100584.50;;;16.21;100.00
24104;BME280;12278;53.058;9.028;2022-09-09T16:05:33;100584.34;;;16.28;100.00
24104;BME280;12278;53.058;9.028;2022-09-09T16:09:36;100593.03;;;16.43;100.00
24104;BME280;12278;53.058;9.028;2022-09-09T16:13:37;100597.75;;;16.30;100.00
24104;BME280;12278;53.058;9.028;2022-09-09T16:17:38;100582.88;;;16.12;100.00
24104;BME280;12278;53.058;9.028;2022-09-09T16:21:45;100586.69;;;16.02;100.00
24104;BME280;12278;53.058;9.028;2022-09-09T16:25:56;100593.47;;;16.21;100.00
24104;BME280;12278;53.058;9.028;2022-09-09T16:29:56;100594.53;;;16.13;100.00
24104;BME280;12278;53.058;9.028;2022-09-09T16:33:57;100589.97;;;16.18;100.00
24104;BME280;12278;53.058;9.028;2022-09-09T16:37:59;100603.50;;;16.12;100.00
24104;BME280;12278;53.058;9.028;2022-09-09T16:42:00;100600.06;;;16.05;100.00
24104;BME280;12278;53.058;9.028;2022-09-09T16:46:03;100597.16;;;16.17;100.00
24104;BME280;12278;53.058;9.028;2022-09-09T16:50:05;100596.34;;;16.11;100.00
24104;BME280;12278;53.058;9.028;2022-09-09T16:54:08;100604.50;;;16.08;100.00
24104;BME280;12278;53.058;9.028;2022-09-09T16:58:11;100606.25;;;16.09;100.00
24104;BME280;12278;53.058;9.028;2022-09-09T17:02:12;100611.88;;;15.98;100.00
24104;BME280;12278;53.058;9.028;2022-09-09T17:06:14;100607.50;;;15.91;100.00
24104;BME280;12278;53.058;9.028;2022-09-09T17:10:15;100622.50;;;16.04;100.00
24104;BME280;12278;53.058;9.028;2022-09-09T17:14:19;100635.72;;;16.16;100.00
24104;BME280;12278;53.058;9.028;2022-09-09T17:18:21;100645.59;;;16.16;100.00
24104;BME280;12278;53.058;9.028;2022-09-09T17:22:23;100660.78;;;16.18;100.00
24104;BME280;12278;53.058;9.028;2022-09-09T17:26:29;100703.44;;;15.89;100.00
24104;BME280;12278;53.058;9.028;2022-09-09T17:30:34;100713.56;;;15.73;100.00
24104;BME280;12278;53.058;9.028;2022-09-09T17:34:35;100708.28;;;15.67;100.00
24104;BME280;12278;53.058;9.028;2022-09-09T17:38:36;100704.03;;;15.51;100.00
24104;BME280;12278;53.058;9.028;2022-09-09T17:42:38;100700.34;;;15.59;100.00
24104;BME280;12278;53.058;9.028;2022-09-09T17:46:42;100701.28;;;15.54;100.00
24104;BME280;12278;53.058;9.028;2022-09-09T17:50:43;100687.09;;;15.46;100.00
24104;BME280;12278;53.058;9.028;2022-09-09T17:54:44;100687.06;;;15.47;100.00
24104;BME280;12278;53.058;9.028;2022-09-09T17:58:44;100679.75;;;15.57;100.00
24104;BME280;12278;53.058;9.028;2022-09-09T18:02:45;100679.75;;;15.55;100.00
24104;BME280;12278;53.058;9.028;2022-09-09T18:06:48;100669.00;;;15.57;100.00
24104;BME280;12278;53.058;9.028;2022-09-09T18:10:53;100679.75;;;15.55;100.00
24104;BME280;12278;53.058;9.028;2022-09-09T18:14:55;100673.75;;;15.39;100.00
24104;BME280;12278;53.058;9.028;2022-09-09T18:18:57;100669.47;;;15.28;100.00
24104;BME280;12278;53.058;9.028;2022-09-09T18:23:00;100684.44;;;15.43;100.00
24104;BME280;12278;53.058;9.028;2022-09-09T18:27:01;100685.22;;;15.51;100.00
24104;BME280;12278;53.058;9.028;2022-09-09T18:31:06;100693.28;;;15.51;100.00
24104;BME280;12278;53.058;9.028;2022-09-09T18:35:07;100690.81;;;15.37;100.00
24104;BME280;12278;53.058;9.028;2022-09-09T18:39:10;100689.75;;;15.47;100.00
24104;BME280;12278;53.058;9.028;2022-09-09T18:43:11;100685.28;;;15.48;100.00
24104;BME280;12278;53.058;9.028;2022-09-09T18:47:12;100679.00;;;15.47;100.00
24104;BME280;12278;53.058;9.028;2022-09-09T18:51:18;100686.91;;;15.56;100.00
24104;BME280;12278;53.058;9.028;2022-09-09T18:55:19;100689.63;;;15.55;100.00
24104;BME280;12278;53.058;9.028;2022-09-09T18:59:22;100680.91;;;15.39;100.00
24104;BME280;12278;53.058;9.028;2022-09-09T19:03:25;100691.25;;;15.68;100.00
24104;BME280;12278;53.058;9.028;2022-09-09T19:07:26;100671.63;;;15.61;100.00
24104;BME280;12278;53.058;9.028;2022-09-09T19:11:27;100685.13;;;15.55;100.00
24104;BME280;12278;53.058;9.028;2022-09-09T19:15:28;100672.56;;;15.57;100.00
24104;BME280;12278;53.058;9.028;2022-09-09T19:19:31;100689.56;;;15.61;100.00
24104;BME280;12278;53.058;9.028;2022-09-09T19:23:32;100699.44;;;15.57;100.00
24104;BME280;12278;53.058;9.028;2022-09-09T19:27:33;100703.91;;;15.60;100.00
24104;BME280;12278;53.058;9.028;2022-09-09T19:31:34;100703.41;;;15.32;100.00
24104;BME280;12278;53.058;9.028;2022-09-09T19:35:36;100703.47;;;15.29;100.00
24104;BME280;12278;53.058;9.028;2022-09-09T19:39:37;100708.16;;;15.15;100.00
24104;BME280;12278;53.058;9.028;2022-09-09T19:43:40;100713.34;;;15.25;100.00
24104;BME280;12278;53.058;9.028;2022-09-09T19:47:41;100706.34;;;15.15;100.00
24104;BME280;12278;53.058;9.028;2022-09-09T19:51:43;100712.44;;;15.26;100.00
24104;BME280;12278;53.058;9.028;2022-09-09T19:55:44;100718.69;;;15.30;100.00
24104;BME280;12278;53.058;9.028;2022-09-09T19:59:45;100716.84;;;15.33;100.00
24104;BME280;12278;53.058;9.028;2022-09-09T20:03:49;100730.22;;;15.36;100.00
24104;BME280;12278;53.058;9.028;2022-09-09T20:07:52;100725.78;;;15.34;100.00
24104;BME280;12278;53.058;9.028;2022-09-09T20:11:53;100740.78;;;15.49;100.00
24104;BME280;12278;53.058;9.028;2022-09-09T20:15:59;100750.91;;;15.31;100.00
24104;BME280;12278;53.058;9.028;2022-09-09T20:20:00;100740.31;;;15.19;100.00
24104;BME280;12278;53.058;9.028;2022-09-09T20:24:07;100733.09;;;15.23;100.00
24104;BME280;12278;53.058;9.028;2022-09-09T20:28:08;100726.84;;;15.21;100.00
24104;BME280;12278;53.058;9.028;2022-09-09T20:32:09;100725.97;;;15.20;100.00
24104;BME280;12278;53.058;9.028;2022-09-09T20:36:20;100721.50;;;15.19;100.00
24104;BME280;12278;53.058;9.028;2022-09-09T20:40:21;100727.81;;;15.17;100.00
24104;BME280;12278;53.058;9.028;2022-09-09T20:44:24;100725.16;;;15.15;100.00
24104;BME280;12278;53.058;9.028;2022-09-09T20:48:24;100712.63;;;15.14;100.00
24104;BME280;12278;53.058;9.028;2022-09-09T20:52:25;100707.38;;;15.05;100.00
24104;BME280;12278;53.058;9.028;2022-09-09T20:56:35;100726.16;;;15.05;100.00
24104;BME280;12278;53.058;9.028;2022-09-09T21:00:40;100710.19;;;14.97;100.00
24104;BME280;12278;53.058;9.028;2022-09-09T21:04:40;100712.03;;;14.94;100.00
24104;BME280;12278;53.058;9.028;2022-09-09T21:08:43;100721.75;;;15.01;100.00
24104;BME280;12278;53.058;9.028;2022-09-09T21:12:45;100717.38;;;14.95;100.00
24104;BME280;12278;53.058;9.028;2022-09-09T21:16:46;100725.44;;;14.92;100.00
24104;BME280;12278;53.058;9.028;2022-09-09T21:20:47;100722.00;;;14.83;100.00
24104;BME280;12278;53.058;9.028;2022-09-09T21:24:48;100721.16;;;14.79;100.00
24104;BME280;12278;53.058;9.028;2022-09-09T21:28:50;100728.28;;;14.82;100.00
24104;BME280;12278;53.058;9.028;2022-09-09T21:32:51;100736.38;;;14.77;100.00
24104;BME280;12278;53.058;9.028;2022-09-09T21:36:51;100739.97;;;14.76;100.00
24104;BME280;12278;53.058;9.028;2022-09-09T21:40:52;100739.94;;;14.79;100.00
24104;BME280;12278;53.058;9.028;2022-09-09T21:44:53;100739.06;;;14.78;100.00
24104;BME280;12278;53.058;9.028;2022-09-09T21:48:56;100739.94;;;14.79;100.00
24104;BME280;12278;53.058;9.028;2022-09-09T21:52:57;100722.16;;;14.69;100.00
24104;BME280;12278;53.058;9.028;2022-09-09T21:56:57;100725.81;;;14.63;100.00
24104;BME280;12278;53.058;9.028;2022-09-09T22:00:58;100733.00;;;14.57;100.00
24104;BME280;12278;53.058;9.028;2022-09-09T22:04:59;100740.19;;;14.56;100.00
24104;BME280;12278;53.058;9.028;2022-09-09T22:09:00;100750.69;;;14.77;100.00
24104;BME280;12278;53.058;9.028;2022-09-09T22:13:03;100749.81;;;14.74;100.00
24104;BME280;12278;53.058;9.028;2022-09-09T22:17:04;100748.88;;;14.80;100.00
24104;BME280;12278;53.058;9.028;2022-09-09T22:21:11;100754.19;;;14.84;100.00
24104;BME280;12278;53.058;9.028;2022-09-09T22:25:12;100748.81;;;14.84;100.00
24104;BME280;12278;53.058;9.028;2022-09-09T22:29:12;100757.72;;;14.88;100.00
24104;BME280;12278;53.058;9.028;2022-09-09T22:33:13;100761.06;;;15.05;100.00
24104;BME280;12278;53.058;9.028;2022-09-09T22:37:14;100768.41;;;14.94;100.00
24104;BME280;12278;53.058;9.028;2022-09-09T22:41:15;100759.41;;;14.96;100.00
24104;BME280;12278;53.058;9.028;2022-09-09T22:45:16;100757.56;;;15.01;100.00
24104;BME280;12278;53.058;9.028;2022-09-09T22:49:17;100742.47;;;14.90;100.00
24104;BME280;12278;53.058;9.028;2022-09-09T22:53:18;100751.47;;;14.86;100.00
24104;BME280;12278;53.058;9.028;2022-09-09T22:57:19;100745.19;;;14.87;100.00
24104;BME280;12278;53.058;9.028;2022-09-09T23:01:20;100748.78;;;14.87;100.00
24104;BME280;12278;53.058;9.028;2022-09-09T23:05:21;100747.97;;;14.81;100.00
24104;BME280;12278;53.058;9.028;2022-09-09T23:09:25;100747.94;;;14.84;100.00
24104;BME280;12278;53.058;9.028;2022-09-09T23:13:27;100754.13;;;14.87;100.00
24104;BME280;12278;53.058;9.028;2022-09-09T23:17:31;100737.19;;;14.84;100.00